createdAt,value
2022-10-19T00:00:42.180Z,4.35
2022-10-19T00:03:08.799Z,4.53
2022-10-19T00:05:35.424Z,4.00
2022-10-19T00:08:02.700Z,4.63
2022-10-19T00:10:29.975Z,4.30
2022-10-19T00:12:56.651Z,4.30
2022-10-19T00:15:23.351Z,4.40
2022-10-19T00:17:50.076Z,4.38
2022-10-19T00:20:16.767Z,4.60
2022-10-19T00:22:43.484Z,4.97
2022-10-19T00:25:10.132Z,5.85
2022-10-19T00:27:37.781Z,4.97
2022-10-19T00:30:05.035Z,4.40
2022-10-19T00:32:32.319Z,5.13
2022-10-19T00:34:59.703Z,4.65
2022-10-19T00:39:53.053Z,5.45
2022-10-19T00:42:19.681Z,4.50
2022-10-19T00:44:49.494Z,4.40
2022-10-19T00:47:18.679Z,4.40
2022-10-19T00:49:46.129Z,5.25
2022-10-19T00:52:15.839Z,4.57
2022-10-19T00:54:44.067Z,4.07
2022-10-19T00:57:11.658Z,4.63
2022-10-19T00:59:39.977Z,4.55
2022-10-19T01:02:07.331Z,4.50
2022-10-19T01:04:37.584Z,4.10
2022-10-19T01:07:05.647Z,4.40
2022-10-19T01:09:32.254Z,4.22
2022-10-19T01:12:25.708Z,4.40
2022-10-19T01:15:22.809Z,4.65
2022-10-19T01:18:12.051Z,4.40
2022-10-19T01:20:39.077Z,4.15
2022-10-19T01:23:21.075Z,4.50
2022-10-19T01:26:06.180Z,4.80
2022-10-19T01:28:33.262Z,4.40
2022-10-19T01:31:14.642Z,4.70
2022-10-19T01:33:52.202Z,4.25
2022-10-19T01:36:47.896Z,4.55
2022-10-19T01:39:30.865Z,5.00
2022-10-19T01:42:09.974Z,4.72
2022-10-19T01:44:54.532Z,4.55
2022-10-19T01:47:51.820Z,4.05
2022-10-19T01:50:27.479Z,4.35
2022-10-19T01:52:56.602Z,4.35
2022-10-19T01:55:26.560Z,5.20
2022-10-19T01:58:08.397Z,4.50
2022-10-19T02:00:39.894Z,4.85
2022-10-19T02:03:08.881Z,6.30
2022-10-19T02:05:38.668Z,4.53
2022-10-19T02:08:11.950Z,4.35
2022-10-19T02:10:41.351Z,4.63
2022-10-19T02:13:08.217Z,4.72
2022-10-19T02:15:38.223Z,4.55
2022-10-19T02:18:06.991Z,4.30
2022-10-19T02:20:35.339Z,4.03
2022-10-19T02:23:06.300Z,4.13
2022-10-19T02:25:34.265Z,4.32
2022-10-19T02:28:03.935Z,3.95
2022-10-19T02:30:30.688Z,4.07
2022-10-19T02:32:57.852Z,4.05
2022-10-19T02:35:24.934Z,4.53
2022-10-19T02:37:52.302Z,4.72
2022-10-19T02:40:19.482Z,4.38
2022-10-19T02:42:55.706Z,4.07
2022-10-19T02:45:36.043Z,4.00
2022-10-19T02:48:07.130Z,3.83
2022-10-19T02:50:34.350Z,4.00
2022-10-19T02:55:29.927Z,4.22
2022-10-19T02:57:57.373Z,4.38
2022-10-19T03:00:24.532Z,3.95
2022-10-19T03:02:51.416Z,4.55
2022-10-19T03:05:18.085Z,3.97
2022-10-19T03:07:45.244Z,4.32
2022-10-19T03:12:38.494Z,4.43
2022-10-19T03:15:05.600Z,4.15
2022-10-19T03:17:32.949Z,4.35
2022-10-19T03:19:59.860Z,4.05
2022-10-19T03:22:26.986Z,4.45
2022-10-19T03:24:54.101Z,4.15
2022-10-19T03:27:21.222Z,3.85
2022-10-19T03:29:47.854Z,4.10
2022-10-19T03:32:14.584Z,4.07
2022-10-19T03:34:41.653Z,4.25
2022-10-19T03:37:08.778Z,4.40
2022-10-19T03:39:35.468Z,3.80
2022-10-19T03:42:02.516Z,4.25
2022-10-19T03:44:29.595Z,4.03
2022-10-19T03:46:56.294Z,4.15
2022-10-19T03:49:23.434Z,4.10
2022-10-19T03:51:50.550Z,4.13
2022-10-19T03:54:17.678Z,3.90
2022-10-19T03:56:44.850Z,4.03
2022-10-19T03:59:14.652Z,4.45
2022-10-19T04:01:44.407Z,4.10
2022-10-19T04:04:14.481Z,3.55
2022-10-19T04:06:43.243Z,4.10
2022-10-19T04:09:13.359Z,4.22
2022-10-19T04:11:40.741Z,4.00
2022-10-19T04:16:35.119Z,3.72
2022-10-19T04:19:02.385Z,3.97
2022-10-19T04:24:08.349Z,3.58
2022-10-19T04:26:39.568Z,3.63
2022-10-19T04:29:06.675Z,3.50
2022-10-19T04:31:33.546Z,3.75
2022-10-19T04:34:00.200Z,4.50
2022-10-19T04:36:27.297Z,4.20
2022-10-19T04:38:54.379Z,3.90
2022-10-19T04:41:22.288Z,4.38
2022-10-19T04:43:54.006Z,3.92
2022-10-19T04:46:21.340Z,4.30
2022-10-19T04:48:49.051Z,4.25
2022-10-19T04:51:16.585Z,4.60
2022-10-19T04:53:44.137Z,4.10
2022-10-19T04:56:22.875Z,4.13
2022-10-19T04:58:49.845Z,3.92
2022-10-19T05:01:19.387Z,4.05
2022-10-19T05:03:46.835Z,4.00
2022-10-19T05:06:15.102Z,3.75
2022-10-19T05:08:42.414Z,4.55
2022-10-19T05:11:16.834Z,4.47
2022-10-19T05:13:45.038Z,4.20
2022-10-19T05:16:14.247Z,4.60
2022-10-19T05:18:41.347Z,4.40
2022-10-19T05:21:10.839Z,4.63
2022-10-19T05:23:38.247Z,5.10
2022-10-19T05:26:09.963Z,4.75
2022-10-19T05:28:37.402Z,4.40
2022-10-19T05:31:13.736Z,4.65
2022-10-19T05:33:41.527Z,4.47
2022-10-19T05:36:36.963Z,4.70
2022-10-19T05:39:17.846Z,4.38
2022-10-19T05:41:46.308Z,5.25
2022-10-19T05:44:18.484Z,5.45
2022-10-19T05:46:45.340Z,4.68
2022-10-19T05:49:13.992Z,4.85
2022-10-19T05:51:41.257Z,4.70
2022-10-19T05:56:35.404Z,4.50
2022-10-19T05:59:05.391Z,4.43
2022-10-19T06:01:32.927Z,5.10
2022-10-19T06:04:00.478Z,5.30
2022-10-19T06:06:28.438Z,5.13
2022-10-19T06:08:56.805Z,5.20
2022-10-19T06:11:27.172Z,5.50
2022-10-19T06:13:55.638Z,5.07
2022-10-19T06:16:24.107Z,4.97
2022-10-19T06:18:52.017Z,4.70
2022-10-19T06:21:21.315Z,5.07
2022-10-19T06:23:52.444Z,5.40
2022-10-19T06:26:19.174Z,5.05
2022-10-19T06:28:46.063Z,5.47
2022-10-19T06:31:14.657Z,5.28
2022-10-19T06:33:44.244Z,5.50
2022-10-19T06:36:14.157Z,5.28
2022-10-19T06:38:41.552Z,5.40
2022-10-19T06:41:09.568Z,5.80
2022-10-19T06:43:36.718Z,6.22
2022-10-19T06:46:08.488Z,5.93
2022-10-19T06:48:35.165Z,5.90
2022-10-19T06:51:06.293Z,6.00
2022-10-19T06:53:34.352Z,5.97
2022-10-19T06:56:03.020Z,5.43
2022-10-19T06:58:31.059Z,5.20
2022-10-19T07:00:59.127Z,5.95
2022-10-19T07:03:27.464Z,5.13
2022-10-19T07:06:00.715Z,4.15
2022-10-19T07:08:29.840Z,5.03
2022-10-19T07:10:59.732Z,4.78
2022-10-19T07:13:27.593Z,4.00
2022-10-19T07:16:05.437Z,3.10
2022-10-19T07:18:33.620Z,3.72
2022-10-19T07:21:03.385Z,3.78
2022-10-19T07:23:31.729Z,3.70
2022-10-19T07:26:03.699Z,3.63
2022-10-19T07:28:30.889Z,3.20
2022-10-19T07:30:57.612Z,3.88
2022-10-19T07:33:24.681Z,3.50
2022-10-19T07:35:51.804Z,3.65
2022-10-19T07:38:18.468Z,3.85
2022-10-19T07:40:47.397Z,3.65
2022-10-19T07:43:14.341Z,3.25
2022-10-19T07:45:41.422Z,3.83
2022-10-19T07:48:08.472Z,3.92
2022-10-19T07:50:35.116Z,4.25
2022-10-19T07:53:05.113Z,3.28
2022-10-19T07:55:34.442Z,3.63
2022-10-19T07:58:01.912Z,3.28
2022-10-19T08:00:29.655Z,3.53
2022-10-19T08:03:31.223Z,3.00
2022-10-19T08:05:43.450Z,3.15
2022-10-19T08:08:10.187Z,3.05
2022-10-19T08:10:36.883Z,2.97
2022-10-19T08:13:04.005Z,2.60
2022-10-19T08:15:31.182Z,2.90
2022-10-19T08:20:24.456Z,2.65
2022-10-19T08:22:56.373Z,2.50
2022-10-19T08:25:25.692Z,2.88
2022-10-19T08:27:52.572Z,3.08
2022-10-19T08:30:19.419Z,3.00
2022-10-19T08:32:46.219Z,2.97
2022-10-19T08:35:13.330Z,2.78
2022-10-19T08:37:44.695Z,3.30
2022-10-19T08:40:23.319Z,3.45
2022-10-19T08:43:35.808Z,2.90
2022-10-19T08:46:47.992Z,2.83
2022-10-19T08:49:20.235Z,2.78
2022-10-19T08:51:51.523Z,2.58
2022-10-19T08:54:18.469Z,3.13
2022-10-19T08:56:54.855Z,2.53
2022-10-19T08:59:46.762Z,3.05
2022-10-19T09:02:45.920Z,3.17
2022-10-19T09:05:29.672Z,3.17
2022-10-19T09:07:57.007Z,3.58
2022-10-19T09:13:20.290Z,2.88
2022-10-19T09:15:52.416Z,2.75
2022-10-19T09:18:27.848Z,2.75
2022-10-19T09:21:33.363Z,3.08
2022-10-19T09:24:26.547Z,2.50
2022-10-19T09:26:57.003Z,2.90
2022-10-19T09:29:41.242Z,3.40
2022-10-19T09:32:19.549Z,3.03
2022-10-19T09:34:53.026Z,2.70
2022-10-19T09:37:26.102Z,2.45
2022-10-19T09:39:55.661Z,2.50
2022-10-19T09:42:24.412Z,2.67
2022-10-19T09:44:52.459Z,3.17
2022-10-19T09:47:39.786Z,2.50
2022-10-19T09:50:26.345Z,2.78
2022-10-19T09:53:03.639Z,2.13
2022-10-19T09:55:43.174Z,2.80
2022-10-19T09:58:17.529Z,2.30
2022-10-19T10:00:54.849Z,2.05
2022-10-19T10:03:32.338Z,2.75
2022-10-19T10:06:04.265Z,2.22
2022-10-19T10:08:35.496Z,2.05
2022-10-19T10:11:12.850Z,2.58
2022-10-19T10:13:50.505Z,1.95
2022-10-19T10:16:20.783Z,2.22
2022-10-19T10:19:06.824Z,1.70
2022-10-19T10:21:46.937Z,1.83
2022-10-19T10:24:13.567Z,1.83
2022-10-19T10:26:46.397Z,2.08
2022-10-19T10:29:32.391Z,2.00
2022-10-19T10:35:00.147Z,1.48
2022-10-19T10:37:23.535Z,1.58
2022-10-19T10:39:57.840Z,1.45
2022-10-19T10:42:43.116Z,1.60
2022-10-19T10:45:18.421Z,1.08
2022-10-19T10:47:48.247Z,1.42
2022-10-19T10:50:31.595Z,1.50
2022-10-19T10:53:07.006Z,1.48
2022-10-19T10:55:34.376Z,1.60
2022-10-19T10:58:16.433Z,1.30
2022-10-19T11:00:44.440Z,1.70
2022-10-19T11:03:23.722Z,1.00
2022-10-19T11:05:57.990Z,1.42
2022-10-19T11:08:38.618Z,1.95
2022-10-19T11:11:18.679Z,1.15
2022-10-19T11:14:01.591Z,1.38
2022-10-19T11:16:40.014Z,1.48
2022-10-19T11:19:25.628Z,1.30
2022-10-19T11:22:03.701Z,1.40
2022-10-19T11:25:04.244Z,1.20
2022-10-19T11:27:43.293Z,1.10
2022-10-19T11:30:15.097Z,1.17
2022-10-19T11:33:05.836Z,1.25
2022-10-19T11:35:32.926Z,1.38
2022-10-19T11:38:18.865Z,1.30
2022-10-19T11:41:24.384Z,1.40
2022-10-19T11:44:01.089Z,1.42
2022-10-19T11:47:03.564Z,1.33
2022-10-19T11:49:37.348Z,1.67
2022-10-19T11:52:24.206Z,1.33
2022-10-19T11:55:05.582Z,1.27
2022-10-19T11:57:57.485Z,1.10
2022-10-19T12:00:40.081Z,1.58
2022-10-19T12:03:31.340Z,1.20
2022-10-19T12:06:29.463Z,1.40
2022-10-19T12:09:23.357Z,1.48
2022-10-19T12:11:56.054Z,1.30
2022-10-19T12:14:26.774Z,1.30
2022-10-19T12:16:58.026Z,1.23
2022-10-19T12:19:39.048Z,1.50
2022-10-19T12:22:10.070Z,1.20
2022-10-19T12:24:36.791Z,1.27
2022-10-19T12:27:04.676Z,1.50
2022-10-19T12:29:39.452Z,1.50
2022-10-19T12:32:07.230Z,1.30
2022-10-19T12:34:43.164Z,1.40
2022-10-19T12:37:23.572Z,1.55
2022-10-19T12:40:23.286Z,1.13
2022-10-19T12:42:59.174Z,1.75
2022-10-19T12:45:36.364Z,1.73
2022-10-19T12:48:09.033Z,2.15
2022-10-19T12:50:51.438Z,3.20
2022-10-19T12:56:15.286Z,2.08
2022-10-19T12:58:46.581Z,1.75
2022-10-19T13:01:33.506Z,1.40
2022-10-19T13:04:20.956Z,1.75
2022-10-19T13:06:50.781Z,1.88
2022-10-19T13:09:23.567Z,1.98
2022-10-19T13:12:19.369Z,1.50
2022-10-19T13:15:05.172Z,1.83
2022-10-19T13:17:34.936Z,2.05
2022-10-19T13:20:13.886Z,6.05
2022-10-19T13:22:59.320Z,6.65
2022-10-19T13:25:28.371Z,2.40
2022-10-19T13:28:12.633Z,11.65
2022-10-19T13:30:39.308Z,2.28
2022-10-19T13:33:27.812Z,1.60
2022-10-19T13:36:00.659Z,1.20
2022-10-19T13:38:44.305Z,1.40
2022-10-19T13:41:25.749Z,1.38
2022-10-19T13:44:08.594Z,1.35
2022-10-19T13:46:48.677Z,1.25
2022-10-19T13:49:39.440Z,1.50
2022-10-19T13:52:14.921Z,1.85
2022-10-19T13:55:00.608Z,1.98
2022-10-19T13:58:02.912Z,1.67
2022-10-19T14:01:12.384Z,1.58
2022-10-19T14:04:12.920Z,1.20
2022-10-19T14:07:01.283Z,1.60
2022-10-19T14:09:47.104Z,1.60
2022-10-19T14:12:35.052Z,1.50
2022-10-19T14:15:22.381Z,4.43
2022-10-19T14:17:49.399Z,4.95
2022-10-19T14:20:35.262Z,2.00
2022-10-19T14:23:30.964Z,2.38
2022-10-19T14:26:00.971Z,1.63
2022-10-19T14:28:28.531Z,2.35
2022-10-19T14:30:59.354Z,2.50
2022-10-19T14:33:28.277Z,1.85
2022-10-19T14:35:55.597Z,2.30
2022-10-19T14:38:35.118Z,1.50
2022-10-19T14:41:03.190Z,3.47
2022-10-19T14:43:34.562Z,1.60
2022-10-19T14:46:06.645Z,2.15
2022-10-19T14:48:35.235Z,3.38
2022-10-19T14:51:04.222Z,1.65
2022-10-19T14:53:42.265Z,1.88
2022-10-19T14:56:14.172Z,1.52
2022-10-19T14:59:11.914Z,1.50
2022-10-19T15:01:38.659Z,2.25
2022-10-19T15:04:05.415Z,2.00
2022-10-19T15:06:35.954Z,1.88
2022-10-19T15:09:12.036Z,2.25
2022-10-19T15:11:47.322Z,3.97
2022-10-19T15:14:32.597Z,2.90
2022-10-19T15:17:01.586Z,1.73
2022-10-19T15:19:37.520Z,1.98
2022-10-19T15:22:32.456Z,1.52
2022-10-19T15:25:07.016Z,2.22
2022-10-19T15:27:39.267Z,1.17
2022-10-19T15:30:28.027Z,1.38
2022-10-19T15:33:12.939Z,1.17
2022-10-19T15:35:42.240Z,1.25
2022-10-19T15:38:20.446Z,1.27
2022-10-19T15:40:48.274Z,1.30
2022-10-19T15:43:37.986Z,1.85
2022-10-19T15:46:13.664Z,1.20
2022-10-19T15:48:40.407Z,1.23
2022-10-19T15:51:27.339Z,1.55
2022-10-19T15:53:56.024Z,1.90
2022-10-19T15:56:24.456Z,1.45
2022-10-19T15:58:53.052Z,1.58
2022-10-19T16:01:22.642Z,2.15
2022-10-19T16:03:49.683Z,1.42
2022-10-19T16:06:18.134Z,1.80
2022-10-19T16:08:48.071Z,1.70
2022-10-19T16:11:19.772Z,1.70
2022-10-19T16:13:46.478Z,1.92
2022-10-19T16:16:24.077Z,1.70
2022-10-19T16:18:51.292Z,1.50
2022-10-19T16:21:19.995Z,1.92
2022-10-19T16:23:46.912Z,2.22
2022-10-19T16:26:17.480Z,1.83
2022-10-19T16:28:44.560Z,2.20
2022-10-19T16:31:11.569Z,2.20
2022-10-19T16:33:38.277Z,2.22
2022-10-19T16:36:06.450Z,2.08
2022-10-19T16:38:33.779Z,2.08
2022-10-19T16:41:02.563Z,2.72
2022-10-19T16:43:30.106Z,2.25
2022-10-19T16:45:57.278Z,2.70
2022-10-19T16:48:24.431Z,5.82
2022-10-19T16:51:12.265Z,10.75
2022-10-19T16:53:38.999Z,3.55
2022-10-19T16:56:11.132Z,3.72
2022-10-19T16:58:38.600Z,12.52
2022-10-19T17:01:09.210Z,6.30
2022-10-19T17:03:36.305Z,7.70
2022-10-19T17:06:04.681Z,4.57
2022-10-19T17:08:36.911Z,3.60
2022-10-19T17:11:21.921Z,4.32
2022-10-19T17:13:50.794Z,4.32
2022-10-19T17:16:19.499Z,3.50
2022-10-19T17:18:46.843Z,5.20
2022-10-19T17:21:17.092Z,4.43
2022-10-19T17:23:44.178Z,3.08
2022-10-19T17:26:11.600Z,4.13
2022-10-19T17:28:39.800Z,3.72
2022-10-19T17:31:09.492Z,3.45
2022-10-19T17:33:37.179Z,3.72
2022-10-19T17:36:15.183Z,3.70
2022-10-19T17:38:42.286Z,4.00
2022-10-19T17:41:15.843Z,3.30
2022-10-19T17:43:45.404Z,3.97
2022-10-19T17:46:14.413Z,3.70
2022-10-19T17:48:42.047Z,4.18
2022-10-19T17:51:15.786Z,3.85
2022-10-19T17:53:47.064Z,3.80
2022-10-19T17:56:16.169Z,4.85
2022-10-19T17:58:43.277Z,6.60
2022-10-19T18:01:11.448Z,10.60
2022-10-19T18:03:39.033Z,20.90
2022-10-19T18:06:11.651Z,11.43
2022-10-19T18:08:40.612Z,5.57
2022-10-19T18:11:10.950Z,4.63
2022-10-19T18:13:38.803Z,5.85
2022-10-19T18:16:08.907Z,7.50
2022-10-19T18:18:38.232Z,9.77
2022-10-19T18:21:06.941Z,6.43
2022-10-19T18:23:34.227Z,6.20
2022-10-19T18:26:07.166Z,4.50
2022-10-19T18:28:34.242Z,4.28
2022-10-19T18:31:11.864Z,4.07
2022-10-19T18:33:38.693Z,4.28
2022-10-19T18:36:07.356Z,4.50
2022-10-19T18:38:34.081Z,4.25
2022-10-19T18:41:06.187Z,4.18
2022-10-19T18:43:33.468Z,4.60
2022-10-19T18:46:00.817Z,4.30
2022-10-19T18:48:29.509Z,4.53
2022-10-19T18:50:57.075Z,4.43
2022-10-19T18:53:24.544Z,4.43
2022-10-19T18:56:02.482Z,4.85
2022-10-19T18:58:32.217Z,4.28
2022-10-19T19:01:24.084Z,4.57
2022-10-19T19:03:52.986Z,4.53
2022-10-19T19:06:24.565Z,4.50
2022-10-19T19:08:54.153Z,4.20
2022-10-19T19:11:26.604Z,3.63
2022-10-19T19:13:55.476Z,4.38
2022-10-19T19:16:23.444Z,4.43
2022-10-19T19:18:50.576Z,4.00
2022-10-19T19:21:28.478Z,4.03
2022-10-19T19:23:57.711Z,4.15
2022-10-19T19:26:27.697Z,4.70
2022-10-19T19:28:54.449Z,3.92
2022-10-19T19:31:21.374Z,4.13
2022-10-19T19:33:48.555Z,4.47
2022-10-19T19:36:16.909Z,3.67
2022-10-19T19:38:44.722Z,3.95
2022-10-19T19:41:13.647Z,3.67
2022-10-19T19:43:40.794Z,3.75
2022-10-19T19:46:12.522Z,4.00
2022-10-19T19:48:41.068Z,3.83
2022-10-19T19:51:13.144Z,4.50
2022-10-19T19:53:40.481Z,4.30
2022-10-19T19:56:09.296Z,4.00
2022-10-19T19:58:36.387Z,3.80
2022-10-19T20:03:47.236Z,4.10
2022-10-19T20:06:20.834Z,4.03
2022-10-19T20:08:50.759Z,4.10
2022-10-19T20:11:17.564Z,4.00
2022-10-19T20:13:45.604Z,4.20
2022-10-19T20:16:26.625Z,4.18
2022-10-19T20:19:00.800Z,3.78
2022-10-19T20:21:27.652Z,4.05
2022-10-19T20:23:54.749Z,3.80
2022-10-19T20:28:49.906Z,3.90
2022-10-19T20:31:16.883Z,3.88
2022-10-19T20:33:44.492Z,3.67
2022-10-19T20:36:17.523Z,3.78
2022-10-19T20:38:52.796Z,4.68
2022-10-19T20:41:21.019Z,4.05
2022-10-19T20:43:47.827Z,4.32
2022-10-19T20:46:23.571Z,3.83
2022-10-19T20:48:51.231Z,3.50
2022-10-19T20:51:21.121Z,3.58
2022-10-19T20:53:50.032Z,3.25
2022-10-19T20:56:19.158Z,3.33
2022-10-19T20:58:46.991Z,4.78
2022-10-19T21:01:18.778Z,7.25
2022-10-19T21:03:53.950Z,5.32
2022-10-19T21:06:22.729Z,4.25
2022-10-19T21:08:50.077Z,8.65
2022-10-19T21:11:17.192Z,4.60
2022-10-19T21:16:16.469Z,6.75
2022-10-19T21:18:44.713Z,5.97
2022-10-19T21:21:33.818Z,4.88
2022-10-19T21:24:04.718Z,3.72
2022-10-19T21:26:33.059Z,4.15
2022-10-19T21:29:00.265Z,4.68
2022-10-19T21:31:27.936Z,5.03
2022-10-19T21:33:55.335Z,4.65
2022-10-19T21:36:24.987Z,16.10
2022-10-19T21:38:51.923Z,7.60
2022-10-19T21:41:25.408Z,8.13
2022-10-19T21:43:53.530Z,4.00
2022-10-19T21:46:21.929Z,4.28
2022-10-19T21:48:49.455Z,4.90
2022-10-19T21:51:43.173Z,4.60
2022-10-19T21:54:16.253Z,4.72
2022-10-19T21:56:43.785Z,4.38
2022-10-19T21:59:12.020Z,4.50
2022-10-19T22:01:41.169Z,7.38
2022-10-19T22:04:16.253Z,6.10
2022-10-19T22:06:43.773Z,4.78
2022-10-19T22:09:13.929Z,4.95
2022-10-19T22:11:40.655Z,5.13
2022-10-19T22:14:07.716Z,6.93
2022-10-19T22:19:05.312Z,5.70
2022-10-19T22:21:33.415Z,5.68
2022-10-19T22:24:02.581Z,4.57
2022-10-19T22:26:35.481Z,4.50
2022-10-19T22:29:03.340Z,4.55
2022-10-19T22:31:31.334Z,4.75
2022-10-19T22:34:00.731Z,4.97
2022-10-19T22:36:27.961Z,4.40
2022-10-19T22:38:55.087Z,4.47
2022-10-19T22:44:29.120Z,5.15
2022-10-19T22:46:56.536Z,4.32
2022-10-19T22:49:23.593Z,7.05
2022-10-19T22:51:50.644Z,5.20
2022-10-19T22:54:17.408Z,5.13
2022-10-19T22:56:44.048Z,4.95
2022-10-19T22:59:10.760Z,5.18
2022-10-19T23:01:38.016Z,4.63
2022-10-19T23:04:05.184Z,4.78
2022-10-19T23:08:58.473Z,4.63
2022-10-19T23:11:25.176Z,7.22
2022-10-19T23:13:52.363Z,4.53
2022-10-19T23:18:46.208Z,4.43
2022-10-19T23:21:14.116Z,4.38
2022-10-19T23:23:41.636Z,4.50
2022-10-19T23:26:13.868Z,4.47
2022-10-19T23:28:42.572Z,4.88
2022-10-19T23:31:16.674Z,4.38
2022-10-19T23:33:43.712Z,4.85
2022-10-19T23:36:16.599Z,4.40
2022-10-19T23:38:44.950Z,4.53
2022-10-19T23:41:12.620Z,4.50
2022-10-19T23:43:39.982Z,4.50
2022-10-19T23:46:07.583Z,4.50
2022-10-19T23:48:35.118Z,4.47
2022-10-19T23:51:11.016Z,4.45
2022-10-19T23:53:41.438Z,4.60
2022-10-19T23:56:11.758Z,4.72
2022-10-19T23:58:38.847Z,4.32
